Time;durP1;ratioP1;P1;durP2;ratioP2;P2;SDS_P1;SDS_P2;PMS_P1;PMS_P2;Temp;Humidity;BMP_temperature;BMP_pressure;BME280_temperature;BME280_humidity;BME280_pressure;Samples;Min_cycle;Max_cycle;Signal;HPM_P1;HPM_P2
2022/12/31 00:01:09;;;;;;;1999.90;999.90;;;;;;;12.28;100.00;95198.69;5016916;28;20269;-61
2022/12/31 00:03:34;;;;;;;1999.90;999.90;;;;;;;12.46;100.00;95204.59;5015986;28;20185;-61
2022/12/31 00:05:59;;;;;;;1999.90;999.90;;;;;;;12.49;100.00;95209.22;5016278;28;20175;-61
2022/12/31 00:08:25;;;;;;;1999.90;999.90;;;;;;;12.63;100.00;95222.66;5016801;28;20293;-62
2022/12/31 00:10:50;;;;;;;1999.90;999.90;;;;;;;12.67;100.00;95231.56;5015979;28;20177;-60
2022/12/31 00:13:15;;;;;;;1999.90;999.90;;;;;;;12.70;100.00;95230.75;5016077;28;20266;-60
2022/12/31 00:15:42;;;;;;;1999.90;999.90;;;;;;;12.62;100.00;95226.59;5016195;28;20186;-59
2022/12/31 00:18:08;;;;;;;1999.90;999.90;;;;;;;12.64;100.00;95226.97;5016899;28;20179;-59
2022/12/31 00:20:37;;;;;;;1999.90;999.90;;;;;;;12.63;100.00;95219.91;5016718;28;20208;-59
2022/12/31 00:23:02;;;;;;;1999.90;999.90;;;;;;;12.65;100.00;95223.03;5016072;28;20236;-59
2022/12/31 00:25:27;;;;;;;1999.90;999.90;;;;;;;12.70;100.00;95233.47;5015891;28;20174;-61
2022/12/31 00:27:54;;;;;;;1999.90;999.90;;;;;;;12.83;100.00;95220.72;5015813;28;20202;-60
2022/12/31 00:30:19;;;;;;;1999.90;999.90;;;;;;;13.02;100.00;95230.94;5015814;28;20174;-59
2022/12/31 00:32:45;;;;;;;1999.90;999.90;;;;;;;12.92;100.00;95232.66;5015881;28;20529;-66
2022/12/31 00:35:10;;;;;;;1999.90;999.90;;;;;;;12.79;100.00;95222.75;5015630;28;20205;-58
2022/12/31 00:37:35;;;;;;;1999.90;999.90;;;;;;;12.79;100.00;95209.06;5016119;28;20182;-60
2022/12/31 00:40:01;;;;;;;1999.90;999.90;;;;;;;12.91;100.00;95228.38;5016246;28;20204;-60
2022/12/31 00:42:26;;;;;;;1999.90;999.90;;;;;;;12.88;100.00;95226.47;5015815;28;20174;-58
2022/12/31 00:44:51;;;;;;;1999.90;999.90;;;;;;;12.97;100.00;95228.66;5015730;28;20215;-58
2022/12/31 00:47:17;;;;;;;1999.90;999.90;;;;;;;13.02;100.00;95250.13;5015843;28;20225;-58
2022/12/31 00:49:42;;;;;;;1999.90;999.90;;;;;;;13.08;100.00;95256.66;5015625;28;20167;-64
2022/12/31 00:52:08;;;;;;;1999.90;999.90;;;;;;;13.20;100.00;95253.28;5015498;28;20603;-74
2022/12/31 00:54:33;;;;;;;1999.90;999.90;;;;;;;13.21;100.00;95263.03;5015232;28;20194;-72
2022/12/31 00:56:59;;;;;;;1999.90;999.90;;;;;;;13.30;100.00;95260.53;5016128;28;20189;-73
2022/12/31 00:59:24;;;;;;;1999.90;999.90;;;;;;;13.33;100.00;95279.63;5015942;28;20181;-78
2022/12/31 01:01:49;;;;;;;1999.90;999.90;;;;;;;13.26;100.00;95285.25;5015379;28;20273;-73
2022/12/31 01:04:19;;;;;;;1999.90;999.90;;;;;;;13.23;100.00;95285.34;5015311;28;20202;-67
2022/12/31 01:06:45;;;;;;;1999.90;999.90;;;;;;;13.20;100.00;95291.66;5016037;28;20175;-68
2022/12/31 01:09:12;;;;;;;1999.90;999.90;;;;;;;13.22;100.00;95294.75;5015279;28;20194;-58
2022/12/31 01:11:38;;;;;;;1999.90;999.90;;;;;;;13.18;100.00;95294.84;5015096;28;20240;-68
2022/12/31 01:14:15;;;;;;;1999.90;999.90;;;;;;;13.29;100.00;95300.09;5015510;28;20174;-67
2022/12/31 01:16:49;;;;;;;1999.90;999.90;;;;;;;13.28;100.00;95293.06;5015513;28;20182;-68
2022/12/31 01:19:27;;;;;;;1999.90;999.90;;;;;;;13.34;100.00;95302.34;5014561;28;20167;-67
2022/12/31 01:21:53;;;;;;;1999.90;999.90;;;;;;;13.49;100.00;95314.59;5014962;28;20187;-66
2022/12/31 01:24:19;;;;;;;1999.90;999.90;;;;;;;13.55;100.00;95312.88;5015090;28;20178;-67
2022/12/31 01:26:45;;;;;;;1999.90;999.90;;;;;;;13.51;100.00;95325.91;5014964;28;20185;-68
2022/12/31 01:29:12;;;;;;;1999.90;999.90;;;;;;;13.59;100.00;95329.28;5014608;28;20203;-68
2022/12/31 01:31:38;;;;;;;1999.90;999.90;;;;;;;13.61;100.00;95348.81;5015045;28;20695;-66
2022/12/31 01:34:04;;;;;;;1999.90;999.90;;;;;;;13.57;100.00;95348.13;5015224;28;20259;-65
2022/12/31 01:36:32;;;;;;;1999.90;999.90;;;;;;;13.54;100.00;95349.75;5015054;28;20186;-67
2022/12/31 01:38:59;;;;;;;1999.90;999.90;;;;;;;13.58;100.00;95349.69;5015202;28;20186;-65
2022/12/31 01:41:35;;;;;;;1999.90;999.90;;;;;;;13.75;100.00;95359.50;5014237;28;20189;-65
2022/12/31 01:44:10;;;;;;;1999.90;999.90;;;;;;;13.82;100.00;95360.16;5014877;28;20203;-65
2022/12/31 01:46:46;;;;;;;1999.90;999.90;;;;;;;13.87;100.00;95367.88;5014783;28;20274;-58
2022/12/31 01:49:19;;;;;;;1999.90;999.90;;;;;;;13.89;100.00;95368.22;5014689;28;20337;-63
2022/12/31 01:51:51;;;;;;;1999.90;999.90;;;;;;;13.92;100.00;95367.38;5014747;28;20266;-60
2022/12/31 01:54:20;;;;;;;1999.90;999.90;;;;;;;13.89;100.00;95376.47;5014104;28;20178;-61
2022/12/31 01:56:49;;;;;;;1999.90;999.90;;;;;;;13.98;100.00;95368.41;5013970;28;20176;-63
2022/12/31 01:59:17;;;;;;;1999.90;999.90;;;;;;;13.97;100.00;95372.38;5014715;28;20225;-61
2022/12/31 02:01:45;;;;;;;1999.90;999.90;;;;;;;13.98;100.00;95373.16;5014395;28;20179;-61
2022/12/31 02:04:12;;;;;;;1999.90;999.90;;;;;;;13.99;100.00;95372.69;5014792;28;20195;-69
2022/12/31 02:06:42;;;;;;;1999.90;999.90;;;;;;;14.01;100.00;95377.78;5014738;28;20215;-67
2022/12/31 02:09:09;;;;;;;1999.90;999.90;;;;;;;14.05;100.00;95376.50;5014561;28;20199;-66
2022/12/31 02:11:36;;;;;;;1999.90;999.90;;;;;;;14.05;100.00;95382.00;5013773;28;20171;-67
2022/12/31 02:14:24;;;;;;;1999.90;999.90;;;;;;;14.08;100.00;95381.16;5013848;28;20178;-66
2022/12/31 02:17:17;;;;;;;1999.90;999.90;;;;;;;14.05;100.00;95376.50;5014514;28;20174;-65
2022/12/31 02:20:20;;;;;;;1999.90;999.90;;;;;;;14.02;100.00;95377.34;5014052;28;20187;-67
2022/12/31 02:23:07;;;;;;;1999.90;999.90;;;;;;;13.97;100.00;95372.38;5013803;28;20175;-58
2022/12/31 02:26:03;;;;;;;1999.90;999.90;;;;;;;13.95;100.00;95372.00;5014034;28;20191;-60
2022/12/31 02:29:06;;;;;;;1999.90;999.90;;;;;;;13.92;100.00;95380.34;5014396;28;20591;-59
2022/12/31 02:31:36;;;;;;;1999.90;999.90;;;;;;;13.93;100.00;95379.91;5014686;28;20182;-61
2022/12/31 02:34:33;;;;;;;1999.90;999.90;;;;;;;13.89;100.00;95370.97;5013674;28;20274;-63
2022/12/31 02:37:02;;;;;;;1999.90;999.90;;;;;;;13.95;100.00;95368.50;5013796;28;20284;-60
2022/12/31 02:39:28;;;;;;;1999.90;999.90;;;;;;;14.02;100.00;95376.59;5013614;28;20237;-58
2022/12/31 02:41:54;;;;;;;1999.90;999.90;;;;;;;13.99;100.00;95372.69;5013791;28;20207;-69
2022/12/31 02:44:33;;;;;;;1999.90;999.90;;;;;;;14.01;100.00;95386.00;5013873;28;20207;-66
2022/12/31 02:47:07;;;;;;;1999.90;999.90;;;;;;;14.03;100.00;95376.16;5013153;28;20193;-65
2022/12/31 02:49:49;;;;;;;1999.90;999.90;;;;;;;14.04;100.00;95383.19;5013904;28;20217;-65
2022/12/31 02:52:48;;;;;;;1999.90;999.90;;;;;;;14.09;100.00;95384.69;5014164;28;20175;-65
2022/12/31 02:55:38;;;;;;;1999.90;999.90;;;;;;;14.07;100.00;95392.56;4999576;28;20194;-67
2022/12/31 03:04:33;;;;;;;1999.90;999.90;;;;;;;14.13;100.00;95386.13;5014589;28;20249;-65
2022/12/31 03:07:00;;;;;;;1999.90;999.90;;;;;;;14.19;100.00;95395.41;5014209;28;20234;-66
2022/12/31 03:09:26;;;;;;;1999.90;999.90;;;;;;;14.15;100.00;95400.22;5013610;28;20217;-68
2022/12/31 03:14:35;;;;;;;1999.90;999.90;;;;;;;14.22;100.00;95402.84;5014479;28;20210;-66
2022/12/31 03:17:00;;;;;;;1999.90;999.90;;;;;;;14.27;100.00;95399.59;5013641;28;20187;-60
2022/12/31 03:22:28;;;;;;;1999.90;999.90;;;;;;;14.31;100.00;95392.03;5014799;28;20175;-66
2022/12/31 03:27:45;;;;;;;1999.90;999.90;;;;;;;14.44;100.00;95414.91;5017623;28;20294;-64
2022/12/31 03:30:13;;;;;;;1999.90;999.90;;;;;;;14.48;100.00;95423.84;5016560;28;20176;-64
2022/12/31 03:32:40;;;;;;;1999.90;999.90;;;;;;;14.51;100.00;95412.00;5017508;28;20174;-63
2022/12/31 03:35:06;;;;;;;1999.90;999.90;;;;;;;14.55;100.00;95420.94;5016933;28;20627;-58
2022/12/31 03:37:31;;;;;;;1999.90;999.90;;;;;;;14.58;100.00;95422.03;5017118;28;20175;-62
2022/12/31 03:39:57;;;;;;;1999.90;999.90;;;;;;;14.62;100.00;95434.50;5016446;28;20172;-61
2022/12/31 03:42:22;;;;;;;1999.90;999.90;;;;;;;14.65;100.00;95430.91;5016800;28;20198;-61
2022/12/31 03:44:47;;;;;;;1999.90;999.90;;;;;;;14.68;100.00;95432.03;5017124;28;20179;-61
2022/12/31 03:47:13;;;;;;;1999.90;999.90;;;;;;;14.69;100.00;95439.84;5017140;28;20273;-63
2022/12/31 03:49:38;;;;;;;1999.90;999.90;;;;;;;14.75;100.00;95416.13;5017081;28;20206;-61
2022/12/31 03:52:05;;;;;;;1999.90;999.90;;;;;;;14.76;100.00;95445.19;5016530;28;20520;-60
2022/12/31 03:54:31;;;;;;;1999.90;999.90;;;;;;;14.72;100.00;95438.97;5017088;28;20171;-70
2022/12/31 03:56:56;;;;;;;1999.90;999.90;;;;;;;14.68;100.00;95438.28;5017128;28;20214;-58
2022/12/31 03:59:21;;;;;;;1999.90;999.90;;;;;;;14.65;100.00;95433.66;5016895;28;20569;-58
2022/12/31 04:01:47;;;;;;;1999.90;999.90;;;;;;;14.72;100.00;95444.47;5016727;28;20176;-58
2022/12/31 04:04:12;;;;;;;1999.90;999.90;;;;;;;14.81;100.00;95441.91;5016348;28;20286;-58
2022/12/31 04:06:37;;;;;;;1999.90;999.90;;;;;;;14.79;100.00;95438.06;5016056;28;20174;-60
2022/12/31 04:09:03;;;;;;;1999.90;999.90;;;;;;;14.82;100.00;95459.19;5016218;28;20205;-58
2022/12/31 04:11:28;;;;;;;1999.90;999.90;;;;;;;14.84;100.00;95456.78;5016200;28;20198;-59
2022/12/31 04:13:53;;;;;;;1999.90;999.90;;;;;;;14.85;100.00;95458.31;5016051;28;20178;-66
2022/12/31 04:16:19;;;;;;;1999.90;999.90;;;;;;;14.75;100.00;95459.34;5016258;28;20233;-58
2022/12/31 04:18:44;;;;;;;1999.90;999.90;;;;;;;14.85;100.00;95461.84;5016008;28;20178;-59
2022/12/31 04:21:09;;;;;;;1999.90;999.90;;;;;;;14.92;100.00;95474.66;5016012;28;20584;-59
2022/12/31 04:23:35;;;;;;;1999.90;999.90;;;;;;;14.93;100.00;95465.97;5016430;28;20238;-58
2022/12/31 04:26:00;;;;;;;1999.90;999.90;;;;;;;14.98;100.00;95479.22;5016589;28;20186;-59
2022/12/31 04:28:25;;;;;;;1999.90;999.90;;;;;;;15.02;100.00;95485.41;5016205;28;20270;-58
2022/12/31 04:30:51;;;;;;;1999.90;999.90;;;;;;;15.03;100.00;95488.91;5016004;28;20175;-69
2022/12/31 04:33:16;;;;;;;1999.90;999.90;;;;;;;15.05;100.00;95484.53;5015626;28;20182;-58
2022/12/31 04:35:42;;;;;;;1999.90;999.90;;;;;;;15.05;100.00;95492.78;5016356;28;20225;-58
2022/12/31 04:38:08;;;;;;;1999.90;999.90;;;;;;;15.04;100.00;95494.00;5014903;28;20202;-58
2022/12/31 04:40:33;;;;;;;1999.90;999.90;;;;;;;15.09;100.00;95499.00;5015720;28;20179;-58
2022/12/31 04:42:59;;;;;;;1999.90;999.90;;;;;;;15.06;100.00;95491.59;5015659;28;20226;-59
2022/12/31 04:45:24;;;;;;;1999.90;999.90;;;;;;;15.04;100.00;95493.25;5015592;28;20179;-59
2022/12/31 04:47:49;;;;;;;1999.90;999.90;;;;;;;15.10;100.00;95492.28;5015375;28;20607;-58
2022/12/31 04:50:15;;;;;;;1999.90;999.90;;;;;;;15.11;100.00;95491.06;5015634;28;20171;-58
2022/12/31 04:52:40;;;;;;;1999.90;999.90;;;;;;;15.15;100.00;95493.75;5015567;28;20255;-68
2022/12/31 04:55:06;;;;;;;1999.90;999.90;;;;;;;15.22;100.00;95499.06;5014928;28;20171;-70
2022/12/31 04:57:31;;;;;;;1999.90;999.90;;;;;;;15.23;100.00;95501.38;5015068;28;20226;-69
2022/12/31 04:59:56;;;;;;;1999.90;999.90;;;;;;;15.22;100.00;95510.84;5015168;28;20172;-68
2022/12/31 05:02:22;;;;;;;1999.90;999.90;;;;;;;15.28;100.00;95500.88;5014997;28;20232;-67
2022/12/31 05:04:47;;;;;;;1999.90;999.90;;;;;;;15.31;100.00;95513.78;5015248;28;20286;-68
2022/12/31 05:07:12;;;;;;;1999.90;999.90;;;;;;;15.37;100.00;95509.31;5015166;28;20183;-70
2022/12/31 05:09:38;;;;;;;1999.90;999.90;;;;;;;15.33;100.00;95511.38;5015277;28;20211;-65
2022/12/31 05:12:03;;;;;;;1999.90;999.90;;;;;;;15.33;100.00;95505.88;5015611;28;20198;-61
2022/12/31 05:14:29;;;;;;;1999.90;999.90;;;;;;;15.41;100.00;95506.50;5015180;28;20175;-62
2022/12/31 05:16:54;;;;;;;1999.90;999.90;;;;;;;15.43;100.00;95510.38;5014698;28;20175;-62
2022/12/31 05:19:20;;;;;;;1999.90;999.90;;;;;;;15.43;100.00;95515.09;5014987;28;20197;-62
2022/12/31 05:22:27;;;;;;;1999.90;999.90;;;;;;;15.46;100.00;95509.50;5014886;28;20180;-62
2022/12/31 05:24:30;;;;;;;1999.90;999.90;;;;;;;15.45;100.00;95521.72;5015669;28;20186;-62
2022/12/31 05:26:55;;;;;;;1999.90;999.90;;;;;;;15.42;100.00;95517.09;5015013;28;20566;-65
2022/12/31 05:29:21;;;;;;;1999.90;999.90;;;;;;;15.31;100.00;95519.28;5014419;28;20277;-61
2022/12/31 05:31:46;;;;;;;1999.90;999.90;;;;;;;15.26;100.00;95521.78;5014814;28;20175;-62
2022/12/31 05:34:11;;;;;;;1999.90;999.90;;;;;;;15.16;100.00;95522.81;5014736;28;20214;-64
2022/12/31 05:36:37;;;;;;;1999.90;999.90;;;;;;;15.12;100.00;95530.38;5014269;28;20172;-60
2022/12/31 05:39:02;;;;;;;1999.90;999.90;;;;;;;15.06;100.00;95524.63;5014576;28;20179;-63
2022/12/31 05:41:27;;;;;;;1999.90;999.90;;;;;;;15.03;100.00;95533.72;5014112;28;20171;-63
2022/12/31 05:43:53;;;;;;;1999.90;999.90;;;;;;;15.01;100.00;95533.34;5014226;28;20186;-62
2022/12/31 05:46:18;;;;;;;1999.90;999.90;;;;;;;15.01;100.00;95530.59;5014258;28;20168;-59
2022/12/31 05:48:43;;;;;;;1999.90;999.90;;;;;;;14.98;100.00;95520.47;5014036;28;20234;-63
2022/12/31 05:51:09;;;;;;;1999.90;999.90;;;;;;;14.93;100.00;95509.97;5014443;28;20179;-63
2022/12/31 05:53:34;;;;;;;1999.90;999.90;;;;;;;14.95;100.00;95513.09;5014455;28;20171;-62
2022/12/31 05:55:59;;;;;;;1999.90;999.90;;;;;;;14.89;100.00;95519.50;5014079;28;20172;-63
2022/12/31 05:58:25;;;;;;;1999.90;999.90;;;;;;;14.92;100.00;95524.16;5013965;28;20172;-63
2022/12/31 06:00:51;;;;;;;1999.90;999.90;;;;;;;14.86;100.00;95523.13;5013978;28;20202;-62
2022/12/31 06:03:16;;;;;;;1999.90;999.90;;;;;;;14.78;100.00;95522.50;5014365;28;20210;-64
2022/12/31 06:05:42;;;;;;;1999.90;999.90;;;;;;;14.69;100.00;95519.56;5014724;28;20191;-59
2022/12/31 06:08:09;;;;;;;1999.90;999.90;;;;;;;14.67;100.00;95510.19;5014163;28;20195;-58
2022/12/31 06:10:34;;;;;;;1999.90;999.90;;;;;;;14.64;100.00;95520.06;5013777;28;20178;-58
2022/12/31 06:12:59;;;;;;;1999.90;999.90;;;;;;;14.56;100.00;95524.16;5014665;28;20167;-60
2022/12/31 06:15:25;;;;;;;1999.90;999.90;;;;;;;14.47;100.00;95532.22;5013743;28;20617;-59
2022/12/31 06:17:50;;;;;;;1999.90;999.90;;;;;;;14.18;100.00;95531.22;5014258;28;20186;-59
2022/12/31 06:20:15;;;;;;;1999.90;999.90;;;;;;;14.17;100.00;95535.13;5014047;28;20197;-64
2022/12/31 06:22:41;;;;;;;1999.90;999.90;;;;;;;14.10;100.00;95527.06;5014726;28;20190;-63
2022/12/31 06:25:06;;;;;;;1999.90;999.90;;;;;;;14.11;100.00;95536.06;5014658;28;20183;-59
2022/12/31 06:27:32;;;;;;;1999.90;999.90;;;;;;;14.07;100.00;95536.16;5014482;28;20297;-59
2022/12/31 06:29:57;;;;;;;1999.90;999.90;;;;;;;14.04;100.00;95531.50;5013578;28;20175;-59
2022/12/31 06:32:23;;;;;;;1999.90;999.90;;;;;;;13.99;100.00;95542.94;5013682;28;20181;-60
2022/12/31 06:34:48;;;;;;;1999.90;999.90;;;;;;;13.94;100.00;95546.19;5014329;28;20230;-59
2022/12/31 06:37:13;;;;;;;1999.90;999.90;;;;;;;13.89;100.00;95545.91;5013788;28;20167;-59
2022/12/31 06:39:39;;;;;;;1999.90;999.90;;;;;;;13.83;100.00;95553.84;5013757;28;20266;-71
2022/12/31 06:42:04;;;;;;;1999.90;999.90;;;;;;;13.80;100.00;95560.16;5013504;28;20167;-67
2022/12/31 06:44:30;;;;;;;1999.90;999.90;;;;;;;13.91;100.00;95566.25;5013476;28;20175;-66
2022/12/31 06:46:55;;;;;;;1999.90;999.90;;;;;;;13.76;100.00;95567.69;5014499;28;20172;-66
2022/12/31 06:49:20;;;;;;;1999.90;999.90;;;;;;;13.79;100.00;95569.59;5013438;28;20232;-67
2022/12/31 06:51:46;;;;;;;1999.90;999.90;;;;;;;13.83;100.00;95570.31;5013580;28;20203;-66
2022/12/31 06:54:12;;;;;;;1999.90;999.90;;;;;;;13.83;100.00;95562.09;5014329;28;20171;-66
2022/12/31 06:56:38;;;;;;;1999.90;999.90;;;;;;;13.82;100.00;95568.78;5014274;28;20181;-66
2022/12/31 06:59:04;;;;;;;1999.90;999.90;;;;;;;13.92;100.00;95565.06;5014341;28;20637;-60
2022/12/31 07:01:41;;;;;;;1999.90;999.90;;;;;;;14.06;100.00;95561.28;5015571;28;20261;-61
2022/12/31 07:04:41;;;;;;;1999.90;999.90;;;;;;;14.08;100.00;95561.63;5017892;28;20249;-60
2022/12/31 07:07:31;;;;;;;1999.90;999.90;;;;;;;14.09;100.00;95565.94;5017168;28;20274;-61
2022/12/31 07:10:30;;;;;;;1999.90;999.90;;;;;;;14.05;100.00;95568.72;5017895;28;20218;-61
2022/12/31 07:13:05;;;;;;;1999.90;999.90;;;;;;;14.00;100.00;95573.94;5016918;28;20183;-60
2022/12/31 07:15:51;;;;;;;1999.90;999.90;;;;;;;14.02;100.00;95572.31;5017205;28;20178;-69
2022/12/31 07:18:32;;;;;;;1999.90;999.90;;;;;;;14.05;100.00;95581.69;5017163;28;20179;-66
2022/12/31 07:20:58;;;;;;;1999.90;999.90;;;;;;;14.04;100.00;95580.91;5017126;28;20190;-61
2022/12/31 07:23:23;;;;;;;1999.90;999.90;;;;;;;13.96;100.00;95585.00;5017128;28;20194;-62
2022/12/31 07:26:05;;;;;;;1999.90;999.90;;;;;;;13.90;100.00;95594.91;5016870;28;20179;-61
2022/12/31 07:29:20;;;;;;;1999.90;999.90;;;;;;;13.86;100.00;95593.41;5017639;28;20293;-61
2022/12/31 07:32:23;;;;;;;1999.90;999.90;;;;;;;13.80;100.00;95587.63;5014914;28;20245;-60
2022/12/31 07:35:03;;;;;;;1999.90;999.90;;;;;;;13.82;100.00;95601.72;5014634;28;20731;-66
2022/12/31 07:37:47;;;;;;;1999.90;999.90;;;;;;;13.85;100.00;95600.88;5016841;28;20175;-67
2022/12/31 07:40:23;;;;;;;1999.90;999.90;;;;;;;13.97;100.00;95603.03;5017328;28;20175;-69
2022/12/31 07:43:11;;;;;;;1999.90;999.90;;;;;;;14.00;100.00;95607.69;5017486;28;20179;-68
2022/12/31 07:45:55;;;;;;;1999.90;999.90;;;;;;;14.05;100.00;95615.41;5016928;28;20171;-70
2022/12/31 07:48:26;;;;;;;1999.90;999.90;;;;;;;13.94;100.00;95619.53;5016476;28;20235;-67
2022/12/31 07:50:53;;;;;;;1999.90;999.90;;;;;;;13.92;100.00;95619.19;5016673;28;20250;-68
2022/12/31 07:53:19;;;;;;;1999.90;999.90;;;;;;;13.91;100.00;95626.66;5017404;28;20246;-59
2022/12/31 07:55:45;;;;;;;1999.90;999.90;;;;;;;13.91;100.00;95632.13;5016242;28;20186;-62
2022/12/31 07:58:49;;;;;;;1999.90;999.90;;;;;;;13.96;100.00;95639.91;5016542;28;20182;-61
2022/12/31 08:01:28;;;;;;;1999.90;999.90;;;;;;;13.98;100.00;95637.50;5016215;28;20179;-59
2022/12/31 08:04:16;;;;;;;1999.90;999.90;;;;;;;14.07;100.00;95636.97;5016856;28;20569;-60
2022/12/31 08:07:16;;;;;;;1999.90;999.90;;;;;;;14.20;100.00;95637.94;5016677;28;20266;-60
2022/12/31 08:09:49;;;;;;;1999.90;999.90;;;;;;;14.29;100.00;95641.69;4997600;28;20738;-61
2022/12/31 08:12:14;;;;;;;1999.90;999.90;;;;;;;14.14;100.00;95643.13;5015507;28;20274;-61
2022/12/31 08:14:45;;;;;;;1999.90;999.90;;;;;;;14.25;100.00;95641.00;5015690;28;20267;-67
2022/12/31 08:17:13;;;;;;;1999.90;999.90;;;;;;;14.25;100.00;95646.50;5016142;28;20576;-67
2022/12/31 08:19:38;;;;;;;1999.90;999.90;;;;;;;14.50;100.00;95652.28;5016511;28;20291;-66
2022/12/31 08:22:49;;;;;;;1999.90;999.90;;;;;;;14.57;100.00;95643.13;5016130;28;20203;-67
2022/12/31 08:25:14;;;;;;;1999.90;999.90;;;;;;;14.63;100.00;95650.47;4998984;28;20233;-63
2022/12/31 08:27:54;;;;;;;1999.90;999.90;;;;;;;14.65;100.00;95637.09;4998369;28;20274;-65
2022/12/31 08:30:20;;;;;;;1999.90;999.90;;;;;;;14.74;100.00;95644.75;4998944;28;20202;-61
2022/12/31 08:33:04;;;;;;;1999.90;999.90;;;;;;;14.97;100.00;95653.69;4998668;28;20243;-66
2022/12/31 08:35:38;;;;;;;1999.90;999.90;;;;;;;15.02;100.00;95655.94;4998952;28;20188;-66
2022/12/31 08:38:28;;;;;;;1999.90;999.90;;;;;;;15.16;100.00;95650.13;4998784;28;20285;-67
2022/12/31 08:40:58;;;;;;;1999.90;999.90;;;;;;;15.18;100.00;95647.72;4998671;28;20202;-67
2022/12/31 08:43:49;;;;;;;1999.90;999.90;;;;;;;15.21;100.00;95651.59;4998558;28;20322;-65
2022/12/31 08:46:23;;;;;;;1999.90;999.90;;;;;;;15.22;100.00;95645.69;4998498;28;20191;-64
2022/12/31 08:48:48;;;;;;;1999.90;999.90;;;;;;;15.25;100.00;95641.28;4998195;28;20278;-66
2022/12/31 08:51:18;;;;;;;1999.90;999.90;;;;;;;15.76;100.00;95649.56;4998281;28;20199;-62
2022/12/31 08:53:44;;;;;;;1999.90;999.90;;;;;;;16.42;100.00;95640.06;4998217;28;20179;-62
2022/12/31 08:56:31;;;;;;;1999.90;999.90;;;;;;;17.60;100.00;95635.03;5006237;28;20223;-64
2022/12/31 08:59:02;;;;;;;1999.90;999.90;;;;;;;18.67;100.00;95629.84;5015606;28;20183;-63
2022/12/31 09:01:36;;;;;;;1999.90;999.90;;;;;;;19.55;100.00;95626.53;5015863;28;20168;-63
2022/12/31 09:04:18;;;;;;;1999.90;999.90;;;;;;;20.33;100.00;95630.53;5015448;28;20229;-63
2022/12/31 09:06:54;;;;;;;1999.90;999.90;;;;;;;19.87;100.00;95634.38;5015808;28;20172;-59
2022/12/31 09:09:31;;;;;;;1999.90;999.90;;;;;;;19.72;100.00;95644.50;5014674;28;20199;-74
2022/12/31 09:12:13;;;;;;;1999.90;999.90;;;;;;;20.28;100.00;95639.44;5014955;28;20179;-70
2022/12/31 09:15:02;;;;;;;1999.90;999.90;;;;;;;20.35;100.00;95650.22;5014907;28;20171;-67
2022/12/31 09:17:44;;;;;;;1999.90;999.90;;;;;;;19.99;100.00;95650.13;5015353;28;20184;-68
2022/12/31 09:20:16;;;;;;;1999.90;999.90;;;;;;;19.43;100.00;95652.34;5015465;28;20179;-75
2022/12/31 09:22:41;;;;;;;1999.90;999.90;;;;;;;19.52;100.00;95653.16;5014866;28;20536;-70
2022/12/31 09:27:41;;;;;;;1999.90;999.90;;;;;;;19.15;100.00;95647.84;5113121;27;20555;-60
2022/12/31 09:30:09;;;;;;;1999.90;999.90;;;;;;;19.02;100.00;95639.63;5094255;28;20188;-68
2022/12/31 09:33:22;;;;;;;1999.90;999.90;;;;;;;19.01;100.00;95659.44;5094093;28;20581;-68
2022/12/31 09:35:53;;;;;;;1999.90;999.90;;;;;;;19.32;100.00;95643.69;5090337;28;20184;-63
2022/12/31 09:38:29;;;;;;;1999.90;999.90;;;;;;;19.20;100.00;95638.97;5112396;28;20164;-65
2022/12/31 09:40:55;;;;;;;1999.90;999.90;;;;;;;18.96;100.00;95641.44;5094776;28;20191;-69
2022/12/31 09:43:38;;;;;;;1999.90;999.90;;;;;;;18.62;100.00;95646.25;5128680;28;20213;-68
2022/12/31 09:46:25;;;;;;;1999.90;999.90;;;;;;;18.42;100.00;95631.91;5112286;28;20218;-61
2022/12/31 09:49:19;;;;;;;1999.90;999.90;;;;;;;18.21;100.00;95635.41;5128583;28;20175;-62
2022/12/31 09:52:21;;;;;;;1999.90;999.90;;;;;;;18.69;100.00;95637.69;5127871;28;20180;-63
2022/12/31 09:55:08;;;;;;;1999.90;999.90;;;;;;;19.20;100.00;95627.91;5128250;28;20167;-59
2022/12/31 09:58:18;;;;;;;1999.90;999.90;;;;;;;19.74;100.00;95630.94;5128382;28;20183;-62
2022/12/31 10:01:15;;;;;;;1999.90;999.90;;;;;;;20.59;96.18;95631.78;5083321;28;20184;-63
2022/12/31 10:03:43;;;;;;;1999.90;999.90;;;;;;;20.92;91.83;95637.47;5131198;28;20179;-75
2022/12/31 10:06:24;;;;;;;1999.90;999.90;;;;;;;21.22;86.39;95631.75;5114205;28;20205;-69
2022/12/31 10:09:23;;;;;;;1999.90;999.90;;;;;;;21.69;82.98;95629.13;5114961;28;20179;-71
2022/12/31 10:12:01;;;;;;;1999.90;999.90;;;;;;;22.38;80.95;95635.28;5113914;28;20172;-71
2022/12/31 10:14:36;;;;;;;1999.90;999.90;;;;;;;22.84;75.74;95621.81;5114338;28;20171;-70
2022/12/31 10:17:46;;;;;;;1999.90;999.90;;;;;;;22.82;73.79;95629.09;5114332;28;20199;-70
2022/12/31 10:20:36;;;;;;;1999.90;999.90;;;;;;;23.22;72.18;95621.00;5069382;28;20187;-66
2022/12/31 10:23:07;;;;;;;1999.90;999.90;;;;;;;23.05;71.48;95625.50;5114555;28;20296;-60
2022/12/31 10:25:38;;;;;;;1999.90;999.90;;;;;;;23.23;70.55;95614.97;5113913;28;20230;-63
2022/12/31 10:28:17;;;;;;;1999.90;999.90;;;;;;;23.51;69.59;95616.22;5113775;28;20178;-60
2022/12/31 10:30:52;;;;;;;1999.90;999.90;;;;;;;23.01;69.64;95619.34;5113982;28;20322;-59
2022/12/31 10:33:29;;;;;;;1999.90;999.90;;;;;;;23.02;70.91;95612.53;5131829;28;20246;-59
2022/12/31 10:36:18;;;;;;;1999.90;999.90;;;;;;;22.27;73.23;95618.34;5114118;28;20167;-61
2022/12/31 10:39:21;;;;;;;1999.90;999.90;;;;;;;21.57;79.15;95610.63;5100434;28;20180;-61
2022/12/31 10:41:50;;;;;;;1999.90;999.90;;;;;;;21.26;84.30;95610.13;5099931;28;20176;-58
2022/12/31 10:44:45;;;;;;;1999.90;999.90;;;;;;;21.10;86.55;95612.47;5099962;28;20229;-58
2022/12/31 10:47:29;;;;;;;1999.90;999.90;;;;;;;20.83;89.09;95606.94;5099475;28;20211;-59
2022/12/31 10:50:09;;;;;;;1999.90;999.90;;;;;;;20.50;88.51;95617.88;5099582;28;20172;-59
2022/12/31 10:52:49;;;;;;;1999.90;999.90;;;;;;;20.35;94.53;95616.94;5099915;28;20192;-58
2022/12/31 10:55:49;;;;;;;1999.90;999.90;;;;;;;20.26;93.89;95618.94;5100469;28;20262;-59
2022/12/31 10:58:51;;;;;;;1999.90;999.90;;;;;;;20.06;97.57;95615.81;5100091;28;20305;-67
2022/12/31 11:01:29;;;;;;;1999.90;999.90;;;;;;;19.84;99.36;95607.56;5099379;28;20172;-67
2022/12/31 11:04:36;;;;;;;1999.90;999.90;;;;;;;19.78;99.90;95603.88;5100172;28;20195;-69
2022/12/31 11:07:22;;;;;;;1999.90;999.90;;;;;;;19.82;100.00;95607.25;5099167;28;20221;-66
2022/12/31 11:10:18;;;;;;;1999.90;999.90;;;;;;;19.75;100.00;95607.53;5099821;28;20186;-68
2022/12/31 11:13:13;;;;;;;1999.90;999.90;;;;;;;19.74;100.00;95600.44;5100269;28;20179;-67
2022/12/31 11:15:54;;;;;;;1999.90;999.90;;;;;;;19.66;100.00;95604.72;5099345;28;20198;-67
2022/12/31 11:18:39;;;;;;;1999.90;999.90;;;;;;;19.66;100.00;95588.09;5099842;28;20262;-66
2022/12/31 11:21:07;;;;;;;1999.90;999.90;;;;;;;19.66;100.00;95592.88;5098941;28;20176;-66
2022/12/31 11:24:03;;;;;;;1999.90;999.90;;;;;;;19.64;100.00;95584.25;5099238;28;20196;-65
2022/12/31 11:27:03;;;;;;;1999.90;999.90;;;;;;;19.65;100.00;95583.78;5099285;28;20243;-66
2022/12/31 11:30:02;;;;;;;1999.90;999.90;;;;;;;19.58;100.00;95573.00;5099629;28;20290;-65
2022/12/31 11:33:15;;;;;;;1999.90;999.90;;;;;;;19.71;99.09;95578.41;5099400;28;20187;-68